Terminal Aerodrome Forecast
Issued by NWS

Home | Current Version | Previous Version | Text Only | Print | Product List | Glossary On
Versions: 1 2 3 4 5 6 7 8 9 10 11 12 13 14 15 16 17 18 19 20 21
070
FTUS45 KVEF 252326
TAFVGT
TAF
KVGT 252326Z 2600/2624 16010KT P6SM SCT150 BKN200
     FM260600 VRB06KT P6SM SCT150 SCT200
     FM261600 14009KT P6SM SCT150 BKN200
     FM262100 18009KT P6SM SCT150 BKN250=

USA.gov is the U.S. government's official web portal to all federal, state and local government web resources and services.